Time;durP1;ratioP1;P1;durP2;ratioP2;P2;SDS_P1;SDS_P2;PMS_P1;PMS_P2;Temp;Humidity;BMP_temperature;BMP_pressure;BME280_temperature;BME280_humidity;BME280_pressure;Samples;Min_cycle;Max_cycle;Signal;HPM_P1;HPM_P2
2021/09/18 00:00:29;;;;;;;13.52;10.30;;;;;;;20.73;71.25;100395.44;5011021;27;102654;-49
2021/09/18 00:02:55;;;;;;;10.05;8.95;;;;;;;20.73;71.03;100397.41;4994432;27;102592;-49
2021/09/18 00:05:22;;;;;;;11.38;9.65;;;;;;;20.73;71.07;100389.13;5018995;27;104160;-48
2021/09/18 00:07:51;;;;;;;12.23;9.07;;;;;;;20.73;71.00;100375.28;5031239;27;102423;-49
2021/09/18 00:10:17;;;;;;;12.00;9.60;;;;;;;20.73;71.23;100380.81;5024100;27;102402;-49
2021/09/18 00:12:44;;;;;;;10.75;9.60;;;;;;;20.73;70.94;100381.63;5034397;27;102466;-49
2021/09/18 00:15:11;;;;;;;11.73;8.90;;;;;;;20.73;71.05;100384.38;5028445;27;103905;-49
2021/09/18 00:17:37;;;;;;;10.52;8.77;;;;;;;20.72;71.07;100382.78;5029200;27;102441;-49
2021/09/18 00:20:08;;;;;;;11.10;9.38;;;;;;;20.72;71.23;100385.53;5030361;27;102392;-49
2021/09/18 00:22:35;;;;;;;10.82;8.60;;;;;;;20.72;70.93;100390.28;5029451;27;102177;-49
2021/09/18 00:25:07;;;;;;;11.20;9.57;;;;;;;20.72;71.28;100391.06;5027730;27;103667;-49
2021/09/18 00:27:34;;;;;;;12.20;9.20;;;;;;;20.72;71.09;100385.53;5030622;27;102280;-49
2021/09/18 00:30:01;;;;;;;13.25;9.07;;;;;;;20.71;71.19;100395.00;5029088;27;102577;-49
2021/09/18 00:32:27;;;;;;;10.85;9.15;;;;;;;20.71;71.09;100395.00;5029394;27;102409;-49
2021/09/18 00:34:57;;;;;;;10.23;8.77;;;;;;;20.72;70.97;100404.91;5029088;27;103966;-49
2021/09/18 00:37:23;;;;;;;10.77;8.95;;;;;;;20.72;71.06;100391.06;5024532;27;102513;-49
2021/09/18 00:39:50;;;;;;;10.60;9.55;;;;;;;20.71;71.25;100389.47;5034504;27;102586;-49
2021/09/18 00:42:20;;;;;;;13.38;9.63;;;;;;;20.72;71.51;100393.84;5042081;27;102507;-49
2021/09/18 00:44:47;;;;;;;10.83;9.63;;;;;;;20.71;71.49;100395.00;5027980;27;104094;-49
2021/09/18 00:47:21;;;;;;;14.23;9.32;;;;;;;20.71;71.58;100386.72;5026771;27;102099;-49
2021/09/18 00:49:48;;;;;;;12.55;8.88;;;;;;;20.71;71.33;100383.94;5029344;27;102515;-49
2021/09/18 00:52:19;;;;;;;11.73;8.77;;;;;;;20.72;71.55;100384.75;5028092;27;102556;-49
2021/09/18 00:54:46;;;;;;;13.65;9.40;;;;;;;20.72;71.41;100381.97;5027780;27;103874;-48
2021/09/18 00:57:23;;;;;;;12.80;9.05;;;;;;;20.72;71.53;100380.00;5026026;27;102306;-49
2021/09/18 00:59:50;;;;;;;12.70;9.18;;;;;;;20.72;71.65;100374.47;5028656;27;102806;-49
2021/09/18 01:02:16;;;;;;;9.68;8.68;;;;;;;20.71;71.58;100378.41;5028725;27;102826;-49
2021/09/18 01:04:43;;;;;;;13.48;9.10;;;;;;;20.72;71.50;100380.00;5029713;27;103953;-49
2021/09/18 01:07:10;;;;;;;14.45;9.15;;;;;;;20.72;71.48;100377.25;5030279;27;102189;-50
2021/09/18 01:09:37;;;;;;;15.50;9.38;;;;;;;20.72;71.53;100380.00;5029071;27;102516;-49
2021/09/18 01:12:05;;;;;;;16.88;9.23;;;;;;;20.72;71.41;100377.25;5028694;27;102635;-49
2021/09/18 01:14:33;;;;;;;12.05;9.27;;;;;;;20.72;71.63;100368.94;5028427;27;103985;-49
2021/09/18 01:17:02;;;;;;;12.45;9.00;;;;;;;20.71;71.40;100367.34;5026106;27;102175;-50
2021/09/18 01:19:34;;;;;;;11.32;9.02;;;;;;;20.72;71.69;100368.94;5028222;27;102109;-49
2021/09/18 01:22:04;;;;;;;;;;;;;;;20.72;72.09;100374.47;5022586;27;102525;-49
2021/09/18 01:24:33;;;;;;;12.88;9.52;;;;;;;20.72;71.83;100362.63;5027934;27;103517;-49
2021/09/18 01:27:00;;;;;;;11.93;9.33;;;;;;;20.72;71.82;100363.41;5027906;27;102790;-48
2021/09/18 01:29:26;;;;;;;10.63;8.90;;;;;;;20.72;71.68;100362.63;5027820;27;102664;-49
2021/09/18 01:31:53;;;;;;;9.93;8.93;;;;;;;20.71;71.87;100356.28;5024193;27;103732;-49
2021/09/18 01:34:22;;;;;;;11.30;9.30;;;;;;;20.71;71.65;100350.75;5018716;27;103900;-49
2021/09/18 01:36:50;;;;;;;13.38;9.45;;;;;;;20.70;71.50;100349.16;5008233;27;103001;-49
2021/09/18 01:39:18;;;;;;;11.47;9.63;;;;;;;20.71;71.77;100345.22;5008762;28;102171;-49
2021/09/18 01:41:48;;;;;;;11.23;9.02;;;;;;;20.71;71.70;100356.28;5012767;27;102573;-49
2021/09/18 01:44:16;;;;;;;10.48;8.82;;;;;;;20.71;71.66;100350.75;5008475;27;103907;-49
2021/09/18 01:46:43;;;;;;;10.47;8.80;;;;;;;20.71;71.96;100349.97;5007220;27;102345;-50
2021/09/18 01:49:12;;;;;;;11.90;9.02;;;;;;;20.70;71.61;100343.63;5008765;27;102066;-49
2021/09/18 01:51:40;;;;;;;16.10;9.70;;;;;;;20.70;71.73;100338.09;5008745;28;102349;-48
2021/09/18 01:54:06;;;;;;;10.05;8.30;;;;;;;20.70;71.59;100346.41;5001844;27;104068;-49
2021/09/18 01:56:33;;;;;;;11.27;9.30;;;;;;;20.70;71.62;100346.41;4995009;28;102393;-49
2021/09/18 01:59:01;;;;;;;11.65;8.80;;;;;;;20.69;71.58;100333.69;5017455;27;102441;-49
2021/09/18 02:01:27;;;;;;;11.60;8.97;;;;;;;20.70;71.72;100343.63;5026240;27;102553;-49
2021/09/18 02:03:54;;;;;;;16.77;9.63;;;;;;;20.69;71.61;100342.00;5026342;27;103861;-49
2021/09/18 02:06:20;;;;;;;11.52;9.27;;;;;;;20.69;71.60;100336.47;5026886;27;102064;-49
2021/09/18 02:08:56;;;;;;;11.27;8.50;;;;;;;20.70;71.76;100331.72;5027484;27;102595;-49
2021/09/18 02:11:23;;;;;;;21.05;9.68;;;;;;;20.69;71.72;100330.94;5028094;27;102601;-49
2021/09/18 02:13:54;;;;;;;12.60;9.10;;;;;;;20.68;71.70;100323.81;5027762;27;103921;-49
2021/09/18 02:16:22;;;;;;;12.73;8.90;;;;;;;20.69;71.79;100325.41;5009878;27;102515;-49
2021/09/18 02:18:52;;;;;;;11.13;8.98;;;;;;;20.68;71.55;100318.28;5014588;27;102126;-49
2021/09/18 02:21:21;;;;;;;11.70;9.07;;;;;;;20.69;71.76;100314.34;5009261;27;102333;-49
2021/09/18 02:23:48;;;;;;;10.75;8.52;;;;;;;20.69;71.72;100314.34;5007761;28;103937;-49
2021/09/18 02:26:35;;;;;;;10.55;9.05;;;;;;;20.68;71.61;100307.22;5025021;27;103254;-49
2021/09/18 02:29:04;;;;;;;12.55;10.00;;;;;;;20.69;71.63;100303.28;5027968;27;102535;-49
2021/09/18 02:31:32;;;;;;;14.27;9.20;;;;;;;20.69;71.85;100299.72;5023194;27;102126;-49
2021/09/18 02:33:58;;;;;;;14.40;9.10;;;;;;;20.69;71.80;100303.28;5026281;27;103855;-49
2021/09/18 02:36:25;;;;;;;11.68;8.82;;;;;;;20.68;71.65;100307.22;5027593;27;102064;-51
2021/09/18 02:38:57;;;;;;;13.00;9.10;;;;;;;20.68;71.79;100301.69;5028381;27;102317;-49
2021/09/18 02:41:25;;;;;;;10.40;9.33;;;;;;;20.68;71.80;100298.91;5029112;27;103698;-49
2021/09/18 02:43:51;;;;;;;13.93;9.38;;;;;;;20.69;71.85;100295.00;5025458;27;103961;-49
2021/09/18 02:46:22;;;;;;;12.77;9.20;;;;;;;20.69;71.67;100296.97;5023514;27;102284;-49
2021/09/18 02:48:50;;;;;;;11.55;8.55;;;;;;;20.68;71.93;100289.81;5026660;27;102445;-49
2021/09/18 02:51:18;;;;;;;13.57;9.07;;;;;;;20.68;72.01;100285.09;5031130;27;102540;-52
2021/09/18 02:54:04;;;;;;;10.38;8.48;;;;;;;20.68;71.66;100279.56;5028285;27;103338;-49
2021/09/18 02:56:44;;;;;;;9.95;8.90;;;;;;;20.67;71.69;100286.25;5019397;27;102588;-49
2021/09/18 02:59:11;;;;;;;14.38;9.75;;;;;;;20.68;71.97;100284.28;5007814;28;102408;-49
2021/09/18 03:01:37;;;;;;;13.13;9.25;;;;;;;20.67;71.84;100286.25;5007704;28;102651;-48
2021/09/18 03:04:06;;;;;;;11.98;8.73;;;;;;;20.68;72.03;100278.75;5014566;27;102857;-49
2021/09/18 03:06:33;;;;;;;;;;;;;;;20.68;72.31;100282.31;5018692;27;102354;-49
2021/09/18 03:08:59;;;;;;;11.35;8.90;;;;;;;20.68;71.78;100273.22;5008630;27;102442;-49
2021/09/18 03:11:27;;;;;;;11.07;9.57;;;;;;;20.68;72.01;100276.78;5022879;27;102609;-48
2021/09/18 03:13:58;;;;;;;10.15;8.73;;;;;;;20.68;71.91;100274.03;5005901;28;104018;-49
2021/09/18 03:16:25;;;;;;;13.82;9.20;;;;;;;20.67;72.04;100269.66;5006236;27;102674;-48
2021/09/18 03:18:54;;;;;;;12.40;9.23;;;;;;;20.68;71.83;100273.22;5007181;28;102391;-49
2021/09/18 03:21:22;;;;;;;11.75;9.32;;;;;;;20.69;71.84;100275.63;5004800;28;102213;-49
2021/09/18 03:23:49;;;;;;;12.32;9.70;;;;;;;20.68;71.97;100274.03;5001368;27;102717;-49
2021/09/18 03:26:16;;;;;;;11.35;9.35;;;;;;;20.68;71.98;100268.50;5006013;28;102799;-49
2021/09/18 03:28:44;;;;;;;14.02;9.07;;;;;;;20.68;71.84;100271.28;5002187;27;102673;-50
2021/09/18 03:31:11;;;;;;;11.88;9.05;;;;;;;20.68;71.79;100264.94;4993890;28;102107;-49
2021/09/18 03:33:39;;;;;;;12.05;9.57;;;;;;;20.67;71.94;100269.66;5007559;27;103950;-49
2021/09/18 03:36:08;;;;;;;14.93;9.80;;;;;;;20.68;72.06;100267.69;5007490;27;102532;-49
2021/09/18 03:38:37;;;;;;;10.88;9.38;;;;;;;20.68;72.06;100268.50;5012136;28;102393;-49
2021/09/18 03:41:04;;;;;;;12.13;9.32;;;;;;;20.68;72.01;100279.56;5010215;28;102557;-49
2021/09/18 03:43:41;;;;;;;12.90;10.63;;;;;;;20.68;72.07;100279.56;5007960;27;103503;-48
2021/09/18 03:46:10;;;;;;;12.02;10.25;;;;;;;20.69;71.97;100281.16;5002721;28;102590;-49
2021/09/18 03:48:37;;;;;;;11.63;9.40;;;;;;;20.68;71.96;100289.81;5016721;27;102189;-49
2021/09/18 03:51:04;;;;;;;11.23;9.45;;;;;;;20.68;72.04;100278.75;5015122;28;102710;-49
2021/09/18 03:53:31;;;;;;;10.25;9.25;;;;;;;20.69;72.06;100280.38;5007454;27;104160;-48
2021/09/18 03:56:00;;;;;;;12.35;8.85;;;;;;;20.68;71.93;100285.09;5005036;28;102305;-50
2021/09/18 03:58:27;;;;;;;12.63;9.43;;;;;;;20.68;72.12;100282.31;5017322;27;102327;-48
2021/09/18 04:00:53;;;;;;;10.68;9.18;;;;;;;20.68;72.00;100274.03;5022530;27;102822;-49
2021/09/18 04:03:20;;;;;;;10.55;8.95;;;;;;;20.68;71.98;100268.50;5027408;27;103455;-49
2021/09/18 04:05:47;;;;;;;10.00;8.63;;;;;;;20.67;72.14;100277.97;5042929;27;102420;-49
2021/09/18 04:08:14;;;;;;;11.82;9.68;;;;;;;20.67;72.09;100280.72;5032583;27;102209;-49
2021/09/18 04:10:41;;;;;;;11.30;9.20;;;;;;;20.66;72.05;100265.28;5034668;27;102393;-48
2021/09/18 04:13:15;;;;;;;10.93;9.23;;;;;;;20.68;72.09;100268.50;5014820;27;107882;-50
2021/09/18 04:15:42;;;;;;;13.00;9.60;;;;;;;20.68;72.05;100257.44;5017426;27;102240;-49
2021/09/18 04:18:09;;;;;;;11.48;9.20;;;;;;;20.67;71.97;100258.59;5032762;27;102209;-50
2021/09/18 04:20:37;;;;;;;12.15;9.90;;;;;;;20.67;72.16;100264.13;5030913;27;102419;-49
2021/09/18 04:23:05;;;;;;;10.15;8.52;;;;;;;20.68;72.30;100264.94;5027596;27;104127;-48
2021/09/18 04:25:32;;;;;;;10.98;8.77;;;;;;;20.68;72.17;100262.97;5027769;27;102749;-49
2021/09/18 04:27:58;;;;;;;10.20;8.75;;;;;;;20.67;72.20;100266.91;5028798;27;102606;-49
2021/09/18 04:30:36;;;;;;;11.23;9.45;;;;;;;20.67;72.09;100266.91;5029112;27;102748;-49
2021/09/18 04:33:02;;;;;;;11.15;9.05;;;;;;;20.68;72.26;100267.69;5028335;27;104215;-49
2021/09/18 04:35:29;;;;;;;10.93;8.88;;;;;;;20.68;72.18;100271.28;5029454;27;102051;-49
2021/09/18 04:37:55;;;;;;;12.23;9.25;;;;;;;20.68;72.16;100267.69;5029090;27;102787;-48
2021/09/18 04:40:22;;;;;;;11.38;9.27;;;;;;;20.68;72.22;100267.69;5031736;27;102859;-49
2021/09/18 04:42:50;;;;;;;9.70;8.68;;;;;;;20.68;72.23;100279.56;5029120;27;104090;-49
2021/09/18 04:45:16;;;;;;;10.07;9.07;;;;;;;20.67;72.22;100269.66;5012765;27;102285;-48
2021/09/18 04:47:45;;;;;;;13.50;9.75;;;;;;;20.68;72.28;100273.22;5025892;27;102396;-48
2021/09/18 04:50:13;;;;;;;10.98;8.93;;;;;;;20.68;72.39;100268.50;5030333;27;102338;-49
2021/09/18 04:52:40;;;;;;;13.00;9.75;;;;;;;20.68;72.32;100274.03;5021633;27;104000;-49
2021/09/18 04:55:07;;;;;;;11.45;9.90;;;;;;;20.68;72.33;100268.50;5022452;27;102558;-48
2021/09/18 04:57:34;;;;;;;13.35;9.45;;;;;;;20.68;72.32;100262.97;5007955;27;102752;-49
2021/09/18 05:00:01;;;;;;;11.23;8.90;;;;;;;20.68;72.33;100267.69;5011443;27;102309;-49
2021/09/18 05:02:27;;;;;;;11.50;8.95;;;;;;;20.69;72.46;100264.56;5022368;27;103844;-49
2021/09/18 05:04:55;;;;;;;11.07;9.32;;;;;;;20.68;72.39;100259.41;5014928;27;102437;-49
2021/09/18 05:07:22;;;;;;;9.13;8.25;;;;;;;20.67;72.33;100261.38;5013400;27;102881;-50
2021/09/18 05:09:48;;;;;;;11.40;9.40;;;;;;;20.68;72.38;100267.69;5021154;27;102661;-50
2021/09/18 05:12:15;;;;;;;12.68;8.75;;;;;;;20.67;72.09;100250.31;5004511;27;104227;-49
2021/09/18 05:14:41;;;;;;;10.30;8.45;;;;;;;20.68;72.20;100256.66;5011343;27;102356;-49
2021/09/18 05:17:27;;;;;;;10.48;8.88;;;;;;;20.68;72.24;100257.44;5007192;27;102507;-49
2021/09/18 05:19:59;;;;;;;9.93;8.93;;;;;;;20.68;72.26;100256.66;5010420;27;102430;-49
2021/09/18 05:22:25;;;;;;;13.98;9.35;;;;;;;20.68;72.13;100249.16;5015155;27;103769;-50
2021/09/18 05:24:52;;;;;;;9.93;8.93;;;;;;;20.68;72.18;100257.44;5010100;27;102196;-48
2021/09/18 05:27:24;;;;;;;10.60;9.50;;;;;;;20.68;72.29;100260.22;5002238;27;102563;-49
2021/09/18 05:29:51;;;;;;;11.68;9.43;;;;;;;20.68;72.21;100254.69;5020661;27;102606;-49
2021/09/18 05:32:18;;;;;;;9.63;8.60;;;;;;;20.67;72.16;100253.06;5026941;27;104055;-49
2021/09/18 05:34:45;;;;;;;9.68;8.68;;;;;;;20.67;72.15;100250.31;5029717;27;102433;-49
2021/09/18 05:37:14;;;;;;;10.75;9.05;;;;;;;20.68;72.15;100251.91;5024880;27;102633;-49
2021/09/18 05:39:40;;;;;;;10.70;9.48;;;;;;;20.67;72.15;100250.31;5030386;27;102287;-49
2021/09/18 05:42:08;;;;;;;9.85;8.85;;;;;;;20.66;72.11;100256.97;5019944;27;104012;-49
2021/09/18 05:44:38;;;;;;;11.05;9.20;;;;;;;20.67;71.90;100255.03;5024746;27;102464;-49
2021/09/18 05:47:04;;;;;;;10.18;9.20;;;;;;;20.68;71.96;100251.91;5008016;27;102604;-49
2021/09/18 05:49:31;;;;;;;11.55;8.93;;;;;;;20.67;72.07;100261.38;5009762;27;102643;-49
2021/09/18 05:51:59;;;;;;;10.25;9.02;;;;;;;20.67;71.99;100260.56;5026062;27;104128;-48
2021/09/18 05:54:27;;;;;;;10.82;8.52;;;;;;;20.66;72.11;100259.75;5026180;27;102272;-48
2021/09/18 05:56:54;;;;;;;9.17;8.23;;;;;;;20.66;71.94;100251.44;5021706;27;102295;-49
2021/09/18 05:59:21;;;;;;;9.40;8.38;;;;;;;20.67;71.91;100253.06;5029978;27;102753;-49
2021/09/18 06:01:48;;;;;;;12.45;8.63;;;;;;;20.67;71.94;100255.03;5027133;27;103761;-49
2021/09/18 06:04:14;;;;;;;9.05;8.18;;;;;;;20.66;71.78;100248.69;5061129;27;102646;-49
2021/09/18 06:06:42;;;;;;;9.55;8.63;;;;;;;20.67;71.72;100253.06;5025396;27;102537;-49
2021/09/18 06:09:09;;;;;;;9.85;8.85;;;;;;;20.66;71.74;100254.22;5030815;27;102600;-49
2021/09/18 06:11:37;;;;;;;10.40;9.38;;;;;;;20.66;71.43;100251.44;5026705;27;104065;-49
2021/09/18 06:14:06;;;;;;;10.45;9.35;;;;;;;20.66;71.76;100253.41;5029567;27;102335;-49
2021/09/18 06:16:34;;;;;;;10.20;9.20;;;;;;;20.67;71.92;100255.84;5027989;27;102135;-49
2021/09/18 06:19:00;;;;;;;10.13;8.90;;;;;;;20.67;71.77;100255.03;5026655;27;102753;-49
2021/09/18 06:21:27;;;;;;;9.52;8.63;;;;;;;20.67;71.65;100255.03;5012695;27;103652;-49
2021/09/18 06:23:54;;;;;;;9.73;8.75;;;;;;;20.66;71.75;100254.22;5025913;27;102285;-49
2021/09/18 06:26:20;;;;;;;10.23;9.00;;;;;;;20.66;71.76;100248.69;5002912;27;102481;-49
2021/09/18 06:28:49;;;;;;;9.52;8.63;;;;;;;20.66;71.74;100248.69;5005230;27;102603;-49
2021/09/18 06:31:15;;;;;;;;;;;;;;;20.66;72.06;100240.38;5005681;28;103465;-49
2021/09/18 06:33:42;;;;;;;9.65;8.57;;;;;;;20.66;71.32;100237.63;5008128;27;102382;-49
2021/09/18 06:36:09;;;;;;;9.48;8.38;;;;;;;20.66;71.52;100243.16;5017863;27;102878;-49
2021/09/18 06:38:35;;;;;;;10.15;8.52;;;;;;;20.67;71.62;100239.25;5012112;27;102510;-49
2021/09/18 06:41:03;;;;;;;10.15;8.93;;;;;;;20.67;71.56;100233.72;5006859;28;103934;-49
2021/09/18 06:43:32;;;;;;;9.52;8.60;;;;;;;20.66;71.53;100237.63;5007327;27;102548;-49
2021/09/18 06:46:01;;;;;;;9.55;8.55;;;;;;;20.67;71.53;100230.97;5006775;28;102162;-49
2021/09/18 06:48:29;;;;;;;9.48;8.55;;;;;;;20.67;71.66;100232.91;5009293;27;102260;-48
2021/09/18 06:50:56;;;;;;;9.68;8.30;;;;;;;20.67;71.63;100232.91;5007256;27;103918;-49
2021/09/18 06:53:23;;;;;;;9.50;8.60;;;;;;;20.66;71.47;100232.09;5014811;27;102001;-49
2021/09/18 06:55:50;;;;;;;9.77;8.77;;;;;;;20.67;71.69;100238.44;5007126;28;102115;-49
2021/09/18 06:58:26;;;;;;;9.48;8.60;;;;;;;20.67;71.46;100236.50;5009704;27;102371;-49
2021/09/18 07:00:53;;;;;;;9.88;8.90;;;;;;;20.66;71.52;100234.84;5006954;28;103427;-49
2021/09/18 07:03:20;;;;;;;9.55;8.55;;;;;;;20.66;71.73;100226.56;5010896;27;102198;-50
2021/09/18 07:05:48;;;;;;;9.30;8.40;;;;;;;20.67;71.38;100233.72;5008251;27;102586;-51
2021/09/18 07:08:15;;;;;;;9.55;8.65;;;;;;;20.68;71.54;100231.75;5009329;28;102276;-49
2021/09/18 07:10:42;;;;;;;9.38;8.38;;;;;;;20.68;71.52;100229.00;5007146;27;103808;-49
2021/09/18 07:13:09;;;;;;;10.02;8.85;;;;;;;20.67;71.52;100228.19;5010304;27;102647;-52
2021/09/18 07:15:35;;;;;;;10.52;9.43;;;;;;;20.68;71.50;100229.78;5011236;27;102232;-49
2021/09/18 07:18:02;;;;;;;10.75;8.40;;;;;;;20.68;71.40;100226.22;5022247;27;102287;-49
2021/09/18 07:20:31;;;;;;;9.68;8.68;;;;;;;20.69;71.44;100227.84;5009726;27;102781;-48
2021/09/18 07:22:59;;;;;;;10.32;9.23;;;;;;;20.68;71.69;100224.25;5006337;27;102423;-49
2021/09/18 07:25:26;;;;;;;8.80;8.00;;;;;;;20.67;71.44;100217.13;5008213;27;102532;-48
2021/09/18 07:27:53;;;;;;;9.20;8.40;;;;;;;20.68;71.38;100224.25;5006460;27;102833;-49
2021/09/18 07:30:20;;;;;;;9.77;8.77;;;;;;;20.67;71.57;100222.66;5010722;27;103818;-49
2021/09/18 07:32:46;;;;;;;9.77;8.77;;;;;;;20.68;71.45;100224.25;5010277;27;102505;-49
2021/09/18 07:35:13;;;;;;;8.68;7.93;;;;;;;20.67;71.53;100222.66;5011096;28;102562;-49
2021/09/18 07:37:41;;;;;;;10.48;9.38;;;;;;;20.69;71.38;100227.84;5004238;27;102915;-49
2021/09/18 07:40:10;;;;;;;9.13;8.30;;;;;;;20.69;71.49;100220.34;5010013;27;104051;-48
2021/09/18 07:42:36;;;;;;;;;;;;;;;20.69;71.51;100219.53;5009577;27;102292;-49
2021/09/18 07:45:05;;;;;;;10.30;9.30;;;;;;;20.69;71.43;100220.34;5009994;27;102823;-49
2021/09/18 07:47:32;;;;;;;10.27;8.20;;;;;;;20.69;71.47;100214.00;5010369;27;102343;-49
2021/09/18 07:49:59;;;;;;;10.15;9.00;;;;;;;20.68;71.40;100215.97;5010110;27;104058;-49
2021/09/18 07:52:25;;;;;;;9.15;8.27;;;;;;;20.69;71.42;100209.28;5010443;27;102402;-49
2021/09/18 07:54:54;;;;;;;9.40;8.50;;;;;;;20.68;71.22;100207.66;5011555;27;102454;-48
2021/09/18 07:57:21;;;;;;;9.73;8.68;;;;;;;20.69;71.82;100198.22;5013372;27;102367;-48
2021/09/18 07:59:48;;;;;;;12.13;8.80;;;;;;;20.68;71.41;100202.16;5023476;27;103378;-49
2021/09/18 08:02:15;;;;;;;9.32;8.43;;;;;;;20.69;71.45;100206.50;5010241;27;102254;-49
2021/09/18 08:04:42;;;;;;;9.68;8.68;;;;;;;20.69;71.46;100200.97;5009655;28;102391;-49
2021/09/18 08:07:08;;;;;;;9.82;8.63;;;;;;;20.69;71.19;100200.97;5012203;27;102345;-49
2021/09/18 08:09:35;;;;;;;9.50;8.60;;;;;;;20.69;71.31;100202.94;5010659;27;104266;-48
2021/09/18 08:12:04;;;;;;;10.05;8.68;;;;;;;20.69;71.32;100197.41;5006280;28;102697;-48
2021/09/18 08:14:30;;;;;;;9.18;8.20;;;;;;;20.69;71.50;100198.22;5010385;27;102477;-48
2021/09/18 08:17:03;;;;;;;10.43;8.63;;;;;;;20.70;71.34;100199.00;5017039;27;102298;-49
2021/09/18 08:19:30;;;;;;;9.00;8.10;;;;;;;20.68;71.61;100199.38;5013904;27;103510;-49
2021/09/18 08:21:56;;;;;;;9.77;8.25;;;;;;;20.68;71.39;100191.09;5020216;28;102267;-49
2021/09/18 08:24:24;;;;;;;9.05;8.07;;;;;;;20.69;71.41;100178.06;5013274;27;102535;-48
2021/09/18 08:26:51;;;;;;;9.88;8.88;;;;;;;20.68;71.28;100185.56;5013179;27;102414;-49
2021/09/18 08:29:20;;;;;;;9.00;8.10;;;;;;;20.69;71.43;100186.34;5010434;27;102952;-49
2021/09/18 08:31:46;;;;;;;;;;;;;;;20.69;71.55;100176.09;5009820;28;102643;-49
2021/09/18 08:34:12;;;;;;;9.45;8.45;;;;;;;20.69;71.28;100169.75;5017969;27;102210;-48
2021/09/18 08:36:39;;;;;;;9.85;8.85;;;;;;;20.69;71.49;100165.03;5009110;28;102272;-49
2021/09/18 08:39:05;;;;;;;9.55;8.68;;;;;;;20.69;71.31;100165.03;5010055;27;104008;-48
2021/09/18 08:41:32;;;;;;;9.88;8.45;;;;;;;20.69;71.30;100159.50;5020724;27;102295;-49
2021/09/18 08:43:59;;;;;;;9.55;8.57;;;;;;;20.69;71.35;100165.03;5013640;27;102226;-48
2021/09/18 08:46:29;;;;;;;9.43;7.93;;;;;;;20.68;71.51;100157.91;5006863;27;102222;-49
2021/09/18 08:48:58;;;;;;;9.27;8.30;;;;;;;20.70;71.28;100154.78;5019758;27;104048;-49
2021/09/18 08:51:25;;;;;;;11.70;8.90;;;;;;;20.69;71.38;100159.50;5019191;27;102804;-50
2021/09/18 08:53:52;;;;;;;9.23;8.35;;;;;;;20.70;71.41;100174.97;5017352;27;102729;-49
2021/09/18 08:56:20;;;;;;;10.40;8.88;;;;;;;20.69;71.21;100170.56;5010343;27;102984;-49
2021/09/18 08:58:47;;;;;;;8.25;7.55;;;;;;;20.69;71.05;100165.03;5008696;28;103933;-48
2021/09/18 09:01:14;;;;;;;11.48;8.90;;;;;;;20.70;71.43;100163.06;5015674;27;102133;-48
2021/09/18 09:03:56;;;;;;;10.05;8.23;;;;;;;20.69;71.51;100159.50;5002830;27;102520;-48
2021/09/18 09:06:22;;;;;;;9.65;8.65;;;;;;;20.69;71.35;100159.50;5007204;28;103106;-49
2021/09/18 09:08:55;;;;;;;8.73;7.63;;;;;;;20.70;71.33;100165.84;5009533;27;103184;-48
2021/09/18 09:11:23;;;;;;;9.15;8.32;;;;;;;20.70;71.33;100163.06;4999862;28;102756;-48
2021/09/18 09:13:59;;;;;;;8.50;7.68;;;;;;;20.70;71.34;100163.06;5007376;27;102306;-48
2021/09/18 09:16:27;;;;;;;10.80;8.77;;;;;;;20.71;71.27;100173.00;5009548;27;102280;-48
2021/09/18 09:18:55;;;;;;;;;;;;;;;20.70;71.56;100177.72;5016039;27;103916;-48
2021/09/18 09:21:24;;;;;;;10.47;8.93;;;;;;;20.70;71.36;100174.97;5009899;27;105188;-48
2021/09/18 09:24:06;;;;;;;10.15;8.73;;;;;;;20.70;71.32;100172.19;5009941;27;102428;-49
2021/09/18 09:26:33;;;;;;;9.32;8.48;;;;;;;20.70;71.42;100161.13;5004984;27;102552;-48
2021/09/18 09:29:00;;;;;;;10.60;8.23;;;;;;;20.70;71.17;100160.31;4998276;28;103952;-48
2021/09/18 09:31:28;;;;;;;8.80;7.97;;;;;;;20.70;71.50;100169.44;5009635;27;102445;-48
2021/09/18 09:34:14;;;;;;;8.82;8.02;;;;;;;20.70;71.30;100166.66;5010951;27;102627;-49
2021/09/18 09:36:55;;;;;;;9.63;8.65;;;;;;;20.70;71.38;100165.84;5005574;27;102665;-49
2021/09/18 09:39:36;;;;;;;11.95;8.48;;;;;;;20.70;71.44;100180.50;5003482;27;102938;-49
2021/09/18 09:42:05;;;;;;;10.30;8.13;;;;;;;20.70;71.18;100183.25;5012421;28;102552;-49
2021/09/18 09:44:45;;;;;;;9.82;8.65;;;;;;;20.70;71.37;100174.97;4973319;27;102497;-49
2021/09/18 09:47:25;;;;;;;10.27;8.90;;;;;;;20.71;71.43;100178.53;5014806;27;102503;-48
2021/09/18 09:50:07;;;;;;;9.82;8.82;;;;;;;20.70;71.38;100193.47;5037032;27;102113;-49
2021/09/18 09:52:50;;;;;;;10.13;8.70;;;;;;;20.70;71.28;100204.53;5059923;27;102154;-49
2021/09/18 09:55:35;;;;;;;9.77;8.77;;;;;;;20.70;71.46;100197.09;5049133;27;102217;-49
2021/09/18 09:58:15;;;;;;;10.90;9.00;;;;;;;20.70;71.42;100194.31;5035569;27;102167;-50
2021/09/18 10:00:57;;;;;;;9.57;8.68;;;;;;;20.70;71.39;100199.00;5047110;27;102139;-49
2021/09/18 10:03:26;;;;;;;11.10;9.68;;;;;;;20.70;71.41;100196.25;5007392;28;102254;-49
2021/09/18 10:05:54;;;;;;;11.40;8.75;;;;;;;20.70;71.20;100194.31;4995633;28;103716;-49
2021/09/18 10:08:23;;;;;;;9.45;8.48;;;;;;;20.70;71.56;100194.31;5001734;28;102706;-49
2021/09/18 10:10:50;;;;;;;11.03;8.57;;;;;;;20.71;71.47;100195.13;5002509;28;105146;-49
2021/09/18 10:13:18;;;;;;;10.10;9.05;;;;;;;20.70;71.20;100196.25;4994852;28;102215;-50
2021/09/18 10:15:48;;;;;;;10.38;9.20;;;;;;;20.71;71.39;100206.19;4999354;28;104012;-49
2021/09/18 10:18:16;;;;;;;9.33;8.43;;;;;;;20.70;71.50;100205.38;5002597;28;102825;-48
2021/09/18 10:23:20;;;;;;;8.15;7.35;;;;;;;20.70;71.37;100199.84;4997589;27;102481;-49
2021/09/18 10:25:49;;;;;;;9.55;8.55;;;;;;;20.71;71.39;100208.94;5019596;27;104019;-49
2021/09/18 10:28:18;;;;;;;10.32;9.20;;;;;;;20.70;71.40;100199.00;5020161;27;102282;-49
2021/09/18 10:30:48;;;;;;;12.27;9.43;;;;;;;20.70;71.53;100199.84;5007176;27;102397;-48
2021/09/18 10:33:35;;;;;;;8.77;7.93;;;;;;;20.69;71.73;100198.22;5024219;27;102446;-50
2021/09/18 10:36:05;;;;;;;9.05;8.15;;;;;;;20.70;71.63;100194.31;5023029;27;103927;-49
2021/09/18 10:38:34;;;;;;;10.35;9.05;;;;;;;20.70;71.32;100191.56;5022417;27;102274;-48
2021/09/18 10:41:02;;;;;;;;;;;;;;;20.70;71.52;100190.72;5017912;27;102465;-49
2021/09/18 10:43:35;;;;;;;10.18;9.18;;;;;;;20.70;71.33;100199.84;5016143;27;102559;-48
2021/09/18 10:46:03;;;;;;;11.30;8.60;;;;;;;20.70;71.42;100205.38;5012458;27;103881;-49
2021/09/18 10:48:40;;;;;;;10.60;9.13;;;;;;;20.70;71.53;100204.53;5016879;27;102044;-49
2021/09/18 10:51:28;;;;;;;;;;;;;;;20.70;71.49;100204.53;5022110;27;102423;-52
2021/09/18 10:54:12;;;;;;;9.60;8.70;;;;;;;20.70;71.48;100204.53;5020424;27;102579;-49
2021/09/18 10:57:00;;;;;;;9.30;8.35;;;;;;;20.70;71.34;100199.84;5024523;27;104043;-49
2021/09/18 10:59:45;;;;;;;9.52;8.63;;;;;;;20.70;71.54;100194.31;5018479;27;102136;-49
2021/09/18 11:02:45;;;;;;;9.40;8.50;;;;;;;20.70;71.44;100194.31;5016871;27;102642;-49
2021/09/18 11:05:44;;;;;;;10.15;8.68;;;;;;;20.70;71.42;100191.56;5033847;27;102558;-49
2021/09/18 11:08:26;;;;;;;10.02;9.02;;;;;;;20.71;71.55;100179.31;5023432;27;103392;-49
2021/09/18 11:10:55;;;;;;;10.40;9.30;;;;;;;20.71;71.29;100171.03;5017595;27;102415;-49
2021/09/18 11:13:31;;;;;;;9.85;8.85;;;;;;;20.71;71.25;100179.31;5000450;28;102802;-48
2021/09/18 11:16:01;;;;;;;11.05;9.25;;;;;;;20.72;71.18;100177.34;5010876;28;102851;-49
2021/09/18 11:18:34;;;;;;;10.43;9.43;;;;;;;20.72;71.17;100164.34;4992460;28;108133;-49
2021/09/18 11:21:07;;;;;;;9.70;8.57;;;;;;;20.72;71.12;100164.34;5006286;28;102333;-48
2021/09/18 11:23:37;;;;;;;9.88;8.90;;;;;;;20.73;71.00;100154.06;4998606;28;102240;-49
2021/09/18 11:26:18;;;;;;;;;;;;;;;20.73;71.38;100154.88;5002093;28;102185;-49